createdAt,value
2023-04-26T00:02:22.060Z,5.75
2023-04-26T00:04:58.578Z,6.68
2023-04-26T00:07:29.163Z,7.22
2023-04-26T00:09:57.193Z,7.15
2023-04-26T00:12:24.540Z,6.65
2023-04-26T00:14:52.093Z,7.28
2023-04-26T00:17:20.577Z,7.03
2023-04-26T00:19:48.008Z,6.93
2023-04-26T00:22:15.433Z,7.25
2023-04-26T00:24:43.435Z,6.60
2023-04-26T00:27:10.925Z,6.88
2023-04-26T00:29:38.834Z,7.75
2023-04-26T00:32:06.762Z,7.72
2023-04-26T00:34:35.228Z,8.90
2023-04-26T00:37:03.729Z,7.82
2023-04-26T00:39:32.122Z,7.03
2023-04-26T00:41:59.559Z,7.13
2023-04-26T00:44:26.940Z,6.90
2023-04-26T00:46:54.601Z,6.38
2023-04-26T00:49:25.530Z,5.85
2023-04-26T00:51:53.686Z,6.60
2023-04-26T00:54:21.848Z,6.95
2023-04-26T00:56:52.158Z,6.40
2023-04-26T00:59:22.866Z,6.28
2023-04-26T01:01:50.343Z,6.50
2023-04-26T01:04:18.416Z,7.15
2023-04-26T01:06:46.528Z,6.65
2023-04-26T01:09:15.687Z,6.47
2023-04-26T01:11:44.646Z,6.90
2023-04-26T01:14:12.336Z,6.80
2023-04-26T01:16:40.865Z,5.85
2023-04-26T01:19:11.051Z,6.78
2023-04-26T01:21:40.629Z,6.85
2023-04-26T01:24:10.994Z,6.53
2023-04-26T01:26:45.735Z,6.45
2023-04-26T01:29:19.880Z,5.88
2023-04-26T01:31:48.570Z,5.85
2023-04-26T01:34:16.579Z,6.15
2023-04-26T01:36:46.661Z,5.40
2023-04-26T01:39:14.091Z,5.82
2023-04-26T01:41:41.486Z,6.35
2023-04-26T01:44:09.022Z,6.75
2023-04-26T01:46:36.467Z,6.47
2023-04-26T01:49:04.062Z,7.47
2023-04-26T01:51:31.674Z,6.70
2023-04-26T01:53:59.767Z,6.20
2023-04-26T01:56:27.185Z,6.30
2023-04-26T01:58:57.802Z,6.43
2023-04-26T02:01:25.665Z,6.30
2023-04-26T02:03:53.429Z,7.03
2023-04-26T02:06:21.720Z,6.43
2023-04-26T02:08:49.636Z,7.35
2023-04-26T02:11:17.269Z,7.97
2023-04-26T02:13:44.626Z,7.75
2023-04-26T02:16:12.025Z,7.53
2023-04-26T02:18:39.424Z,7.13
2023-04-26T02:21:09.197Z,7.03
2023-04-26T02:23:37.683Z,7.07
2023-04-26T02:26:05.199Z,7.90
2023-04-26T02:28:32.655Z,8.02
2023-04-26T02:31:00.030Z,9.10
2023-04-26T02:33:27.453Z,7.82
2023-04-26T02:35:54.955Z,9.20
2023-04-26T02:38:22.319Z,8.80
2023-04-26T02:40:49.677Z,8.40
2023-04-26T02:43:18.139Z,8.82
2023-04-26T02:45:45.520Z,8.27
2023-04-26T02:48:14.738Z,9.70
2023-04-26T02:50:42.612Z,8.95
2023-04-26T02:53:11.303Z,8.98
2023-04-26T02:55:39.988Z,8.98
2023-04-26T02:58:07.744Z,8.25
2023-04-26T03:00:35.482Z,8.52
2023-04-26T03:03:03.310Z,8.05
2023-04-26T03:05:30.917Z,8.95
2023-04-26T03:07:58.589Z,8.48
2023-04-26T03:10:25.989Z,8.68
2023-04-26T03:12:53.423Z,9.15
2023-04-26T03:15:20.813Z,8.80
2023-04-26T03:17:48.317Z,8.95
2023-04-26T03:20:16.219Z,9.80
2023-04-26T03:22:43.678Z,9.50
2023-04-26T03:25:11.212Z,10.57
2023-04-26T03:27:38.652Z,9.95
2023-04-26T03:30:07.232Z,11.23
2023-04-26T03:32:36.404Z,11.85
2023-04-26T03:35:04.621Z,11.35
2023-04-26T03:37:32.938Z,11.60
2023-04-26T03:40:08.445Z,11.82
2023-04-26T03:42:36.923Z,12.07
2023-04-26T03:45:05.513Z,11.50
2023-04-26T03:47:33.060Z,8.07
2023-04-26T03:50:01.240Z,8.88
2023-04-26T03:52:28.686Z,8.32
2023-04-26T03:54:56.142Z,8.75
2023-04-26T03:57:23.579Z,7.95
2023-04-26T03:59:51.283Z,9.20
2023-04-26T04:02:18.858Z,9.63
2023-04-26T04:04:47.039Z,10.70
2023-04-26T04:07:15.452Z,10.57
2023-04-26T04:09:42.848Z,10.25
2023-04-26T04:12:10.345Z,11.23
2023-04-26T04:14:37.907Z,12.18
2023-04-26T04:17:07.465Z,12.05
2023-04-26T04:19:35.043Z,11.95
2023-04-26T04:22:02.512Z,11.05
2023-04-26T04:24:29.984Z,11.70
2023-04-26T04:26:57.372Z,11.85
2023-04-26T04:29:24.799Z,11.70
2023-04-26T04:31:52.309Z,13.32
2023-04-26T04:34:19.919Z,12.25
2023-04-26T04:36:47.967Z,12.80
2023-04-26T04:39:16.513Z,12.73
2023-04-26T04:41:48.920Z,12.60
2023-04-26T04:44:18.625Z,11.57
2023-04-26T04:46:46.206Z,13.38
2023-04-26T04:49:15.041Z,11.13
2023-04-26T04:51:42.758Z,11.20
2023-04-26T04:54:15.961Z,10.98
2023-04-26T04:56:44.722Z,10.00
2023-04-26T04:59:13.746Z,9.68
2023-04-26T05:01:41.828Z,9.82
2023-04-26T05:04:13.532Z,9.23
2023-04-26T05:06:41.275Z,10.50
2023-04-26T05:09:09.347Z,9.27
2023-04-26T05:11:37.872Z,10.85
2023-04-26T05:14:07.130Z,9.57
2023-04-26T05:16:34.642Z,8.52
2023-04-26T05:19:03.668Z,8.35
2023-04-26T05:21:32.265Z,8.48
2023-04-26T05:23:59.660Z,7.53
2023-04-26T05:26:27.229Z,7.03
2023-04-26T05:29:17.465Z,8.13
2023-04-26T05:32:05.966Z,7.65
2023-04-26T05:34:43.781Z,7.95
2023-04-26T05:39:44.667Z,7.65
2023-04-26T05:42:12.513Z,6.50
2023-04-26T05:44:40.928Z,6.40
2023-04-26T05:47:08.829Z,5.90
2023-04-26T05:49:36.192Z,6.25
2023-04-26T05:52:04.830Z,8.68
2023-04-26T05:54:32.316Z,11.95
2023-04-26T05:56:59.656Z,6.32
2023-04-26T05:59:32.838Z,5.35
2023-04-26T06:02:00.442Z,5.72
2023-04-26T06:04:28.160Z,5.45
2023-04-26T06:07:03.533Z,6.88
2023-04-26T06:09:34.222Z,5.18
2023-04-26T06:12:02.276Z,7.55
2023-04-26T06:14:31.058Z,4.68
2023-04-26T06:17:07.285Z,3.90
2023-04-26T06:19:34.859Z,3.65
2023-04-26T06:22:02.330Z,4.30
2023-04-26T06:24:30.811Z,3.85
2023-04-26T06:26:59.168Z,3.42
2023-04-26T06:29:26.572Z,3.05
2023-04-26T06:31:54.563Z,2.67
2023-04-26T06:34:24.359Z,2.72
2023-04-26T06:36:51.877Z,2.92
2023-04-26T06:39:20.091Z,9.52
2023-04-26T06:41:47.480Z,8.88
2023-04-26T06:44:25.047Z,9.13
2023-04-26T06:46:56.829Z,2.10
2023-04-26T06:49:25.385Z,3.33
2023-04-26T06:51:53.001Z,2.95
2023-04-26T06:54:20.778Z,3.45
2023-04-26T06:56:48.184Z,2.17
2023-04-26T06:59:15.737Z,1.92
2023-04-26T07:01:43.133Z,2.08
2023-04-26T07:04:10.962Z,2.38
2023-04-26T07:06:39.464Z,1.92
2023-04-26T07:09:07.815Z,6.68
2023-04-26T07:11:36.222Z,2.20
2023-04-26T07:14:04.458Z,3.60
2023-04-26T07:16:31.933Z,1.98
2023-04-26T07:18:59.352Z,1.80
2023-04-26T07:21:27.146Z,2.92
2023-04-26T07:23:58.154Z,2.08
2023-04-26T07:26:29.756Z,1.85
2023-04-26T07:28:57.268Z,1.95
2023-04-26T07:31:24.620Z,1.63
2023-04-26T07:33:52.204Z,1.85
2023-04-26T07:36:19.910Z,2.72
2023-04-26T07:38:47.274Z,2.00
2023-04-26T07:41:16.454Z,2.15
2023-04-26T07:43:43.870Z,2.33
2023-04-26T07:46:11.268Z,2.55
2023-04-26T07:48:38.722Z,2.80
2023-04-26T07:51:13.385Z,2.30
2023-04-26T07:53:41.651Z,2.10
2023-04-26T07:56:09.753Z,2.15
2023-04-26T07:58:39.397Z,1.90
2023-04-26T08:01:06.905Z,1.90
2023-04-26T08:03:34.647Z,2.35
2023-04-26T08:06:02.536Z,2.13
2023-04-26T08:08:30.054Z,1.92
2023-04-26T08:10:57.486Z,1.90
2023-04-26T08:13:26.985Z,1.95
2023-04-26T08:15:56.302Z,1.90
2023-04-26T08:18:23.651Z,1.90
2023-04-26T08:20:51.044Z,1.80
2023-04-26T08:23:19.659Z,2.42
2023-04-26T08:25:47.990Z,2.35
2023-04-26T08:28:16.166Z,2.88
2023-04-26T08:30:43.878Z,3.83
2023-04-26T08:33:11.528Z,3.22
2023-04-26T08:35:38.988Z,2.80
2023-04-26T08:38:06.468Z,2.30
2023-04-26T08:40:34.133Z,1.95
2023-04-26T08:43:01.546Z,2.50
2023-04-26T08:45:29.012Z,3.05
2023-04-26T08:48:09.330Z,2.85
2023-04-26T08:50:38.800Z,2.28
2023-04-26T08:53:06.855Z,2.08
2023-04-26T08:55:35.939Z,2.40
2023-04-26T08:58:05.069Z,2.63
2023-04-26T09:00:32.554Z,2.42
2023-04-26T09:03:00.041Z,2.75
2023-04-26T09:05:27.998Z,2.50
2023-04-26T09:08:01.516Z,3.13
2023-04-26T09:10:29.768Z,2.42
2023-04-26T09:12:57.221Z,2.20
2023-04-26T09:15:27.082Z,2.35
2023-04-26T09:17:54.767Z,2.10
2023-04-26T09:20:25.319Z,2.35
2023-04-26T09:23:14.024Z,2.78
2023-04-26T09:25:41.915Z,2.58
2023-04-26T09:28:23.416Z,2.40
2023-04-26T09:30:50.933Z,2.67
2023-04-26T09:33:19.494Z,3.83
2023-04-26T09:35:47.049Z,3.10
2023-04-26T09:38:19.269Z,2.92
2023-04-26T09:40:48.978Z,2.83
2023-04-26T09:43:18.660Z,3.40
2023-04-26T09:45:59.080Z,2.53
2023-04-26T09:48:32.041Z,2.88
2023-04-26T09:51:03.510Z,2.67
2023-04-26T09:53:34.755Z,3.15
2023-04-26T09:56:13.757Z,3.13
2023-04-26T09:58:59.420Z,3.03
2023-04-26T10:01:29.966Z,3.00
2023-04-26T10:03:58.358Z,3.95
2023-04-26T10:06:28.409Z,4.88
2023-04-26T10:08:56.713Z,4.90
2023-04-26T10:11:26.392Z,4.18
2023-04-26T10:13:54.269Z,4.13
2023-04-26T10:16:21.840Z,4.15
2023-04-26T10:18:51.070Z,4.20
2023-04-26T10:21:21.453Z,4.38
2023-04-26T10:23:50.011Z,4.05
2023-04-26T10:26:56.884Z,3.83
2023-04-26T10:29:26.272Z,6.20
2023-04-26T10:32:02.907Z,3.50
2023-04-26T10:34:32.391Z,3.22
2023-04-26T10:37:26.886Z,3.67
2023-04-26T10:40:23.883Z,3.13
2023-04-26T10:42:51.365Z,4.18
2023-04-26T10:45:29.985Z,3.80
2023-04-26T10:48:21.055Z,4.07
2023-04-26T10:51:09.548Z,4.20
2023-04-26T10:53:46.229Z,4.00
2023-04-26T10:56:31.887Z,4.20
2023-04-26T11:01:46.518Z,6.38
2023-04-26T11:04:14.352Z,5.55
2023-04-26T11:06:51.859Z,4.60
2023-04-26T11:09:39.722Z,4.10
2023-04-26T11:12:16.689Z,4.25
2023-04-26T11:14:46.255Z,5.45
2023-04-26T11:17:13.711Z,5.47
2023-04-26T11:19:41.993Z,5.13
2023-04-26T11:22:09.461Z,5.00
2023-04-26T11:24:37.128Z,4.70
2023-04-26T11:27:13.086Z,5.30
2023-04-26T11:29:40.508Z,5.78
2023-04-26T11:32:09.205Z,4.97
2023-04-26T11:34:39.232Z,10.77
2023-04-26T11:37:07.937Z,4.90
2023-04-26T11:39:37.038Z,5.38
2023-04-26T11:42:12.037Z,4.72
2023-04-26T11:44:41.107Z,4.63
2023-04-26T11:47:10.127Z,4.38
2023-04-26T11:49:38.212Z,4.55
2023-04-26T11:52:06.559Z,5.20
2023-04-26T11:54:35.836Z,6.05
2023-04-26T11:57:23.493Z,5.03
2023-04-26T11:59:51.233Z,3.53
2023-04-26T12:02:20.661Z,4.60
2023-04-26T12:04:48.423Z,4.82
2023-04-26T12:07:20.743Z,6.30
2023-04-26T12:09:48.081Z,6.50
2023-04-26T12:12:15.457Z,7.43
2023-04-26T12:14:42.818Z,6.32
2023-04-26T12:17:10.513Z,5.53
2023-04-26T12:19:39.771Z,4.80
2023-04-26T12:22:08.924Z,5.45
2023-04-26T12:24:37.585Z,4.85
2023-04-26T12:27:09.442Z,6.70
2023-04-26T12:29:36.908Z,6.30
2023-04-26T12:32:04.579Z,6.50
2023-04-26T12:34:32.109Z,7.03
2023-04-26T12:36:59.517Z,6.50
2023-04-26T12:39:26.909Z,5.53
2023-04-26T12:41:55.185Z,5.88
2023-04-26T12:44:23.013Z,5.63
2023-04-26T12:46:51.307Z,5.30
2023-04-26T12:49:21.337Z,6.45
2023-04-26T12:51:48.786Z,6.00
2023-04-26T12:54:16.281Z,5.40
2023-04-26T12:56:44.527Z,4.82
2023-04-26T12:59:12.046Z,4.82
2023-04-26T13:01:39.578Z,4.22
2023-04-26T13:04:07.362Z,4.63
2023-04-26T13:06:35.857Z,4.90
2023-04-26T13:09:03.568Z,4.05
2023-04-26T13:11:31.004Z,3.58
2023-04-26T13:13:58.397Z,5.18
2023-04-26T13:16:26.238Z,4.97
2023-04-26T13:18:54.422Z,5.38
2023-04-26T13:21:22.029Z,5.45
2023-04-26T13:23:49.405Z,5.32
2023-04-26T13:26:18.275Z,4.47
2023-04-26T13:28:45.851Z,5.03
2023-04-26T13:31:13.404Z,4.90
2023-04-26T13:33:40.965Z,4.78
2023-04-26T13:36:08.432Z,3.65
2023-04-26T13:38:36.001Z,4.18
2023-04-26T13:41:03.416Z,4.28
2023-04-26T13:43:30.819Z,4.68
2023-04-26T13:45:58.244Z,3.80
2023-04-26T13:48:25.758Z,3.42
2023-04-26T13:50:53.307Z,4.20
2023-04-26T13:53:20.979Z,4.40
2023-04-26T13:55:48.992Z,3.58
2023-04-26T13:58:16.523Z,4.20
2023-04-26T14:00:44.337Z,3.78
2023-04-26T14:03:11.882Z,2.70
2023-04-26T14:05:39.340Z,3.20
2023-04-26T14:08:08.125Z,3.35
2023-04-26T14:10:35.492Z,3.17
2023-04-26T14:13:02.935Z,2.80
2023-04-26T14:15:30.279Z,3.15
2023-04-26T14:17:57.688Z,6.65
2023-04-26T14:20:25.105Z,3.67
2023-04-26T14:22:52.540Z,4.20
2023-04-26T14:25:20.018Z,3.67
2023-04-26T14:27:48.374Z,3.15
2023-04-26T14:30:15.849Z,3.05
2023-04-26T14:32:43.445Z,2.10
2023-04-26T14:35:11.339Z,2.00
2023-04-26T14:37:38.743Z,1.30
2023-04-26T14:40:07.977Z,1.48
2023-04-26T14:42:35.888Z,1.67
2023-04-26T14:45:03.543Z,1.33
2023-04-26T14:47:31.843Z,1.45
2023-04-26T14:49:59.258Z,1.90
2023-04-26T14:52:28.948Z,1.70
2023-04-26T14:54:56.401Z,1.80
2023-04-26T14:57:23.986Z,1.92
2023-04-26T14:59:51.361Z,1.90
2023-04-26T15:02:18.807Z,4.78
2023-04-26T15:04:46.450Z,2.80
2023-04-26T15:07:28.368Z,1.10
2023-04-26T15:09:59.526Z,1.30
2023-04-26T15:12:27.114Z,1.45
2023-04-26T15:14:54.572Z,1.40
2023-04-26T15:17:22.003Z,1.80
2023-04-26T15:19:49.354Z,1.90
2023-04-26T15:22:16.738Z,1.65
2023-04-26T15:24:44.076Z,1.50
2023-04-26T15:27:12.748Z,1.50
2023-04-26T15:29:40.208Z,1.30
2023-04-26T15:32:07.592Z,1.40
2023-04-26T15:34:45.250Z,1.95
2023-04-26T15:37:12.814Z,3.67
2023-04-26T15:39:40.262Z,2.28
2023-04-26T15:42:07.698Z,2.17
2023-04-26T15:44:35.119Z,2.03
2023-04-26T15:47:03.750Z,2.10
2023-04-26T15:49:32.330Z,2.63
2023-04-26T15:51:59.889Z,2.22
2023-04-26T15:54:27.589Z,2.22
2023-04-26T15:56:55.372Z,2.38
2023-04-26T15:59:22.750Z,2.25
2023-04-26T16:01:50.255Z,2.75
2023-04-26T16:04:17.937Z,2.97
2023-04-26T16:06:51.613Z,2.97
2023-04-26T16:11:50.467Z,3.30
2023-04-26T16:14:17.928Z,2.97
2023-04-26T16:16:46.140Z,3.53
2023-04-26T16:19:13.739Z,3.65
2023-04-26T16:21:41.263Z,3.17
2023-04-26T16:24:12.555Z,3.60
2023-04-26T16:26:39.977Z,3.10
2023-04-26T16:29:07.385Z,3.60
2023-04-26T16:31:34.807Z,3.25
2023-04-26T16:34:02.214Z,3.58
2023-04-26T16:36:29.769Z,3.33
2023-04-26T16:38:57.276Z,3.08
2023-04-26T16:41:26.581Z,3.50
2023-04-26T16:43:55.087Z,4.20
2023-04-26T16:46:22.556Z,3.80
2023-04-26T16:48:50.188Z,3.75
2023-04-26T16:51:17.784Z,3.53
2023-04-26T16:53:45.199Z,3.65
2023-04-26T16:56:15.064Z,3.25
2023-04-26T16:58:42.611Z,3.45
2023-04-26T17:01:10.080Z,2.60
2023-04-26T17:03:37.690Z,2.58
2023-04-26T17:06:06.652Z,3.20
2023-04-26T17:08:34.095Z,2.95
2023-04-26T17:11:01.726Z,3.15
2023-04-26T17:13:30.745Z,2.40
2023-04-26T17:15:58.329Z,2.45
2023-04-26T17:18:25.962Z,2.70
2023-04-26T17:20:56.278Z,3.05
2023-04-26T17:23:24.510Z,3.58
2023-04-26T17:25:53.789Z,3.50
2023-04-26T17:28:22.496Z,3.35
2023-04-26T17:30:50.007Z,3.35
2023-04-26T17:33:17.603Z,4.03
2023-04-26T17:35:47.183Z,4.25
2023-04-26T17:38:14.675Z,3.72
2023-04-26T17:40:42.066Z,4.18
2023-04-26T17:43:09.511Z,3.90
2023-04-26T17:45:36.928Z,4.35
2023-04-26T17:48:04.568Z,4.18
2023-04-26T17:50:31.928Z,5.15
2023-04-26T17:52:59.281Z,3.80
2023-04-26T17:55:26.969Z,4.32
2023-04-26T17:57:54.337Z,4.07
2023-04-26T18:00:23.984Z,4.80
2023-04-26T18:02:51.650Z,5.10
2023-04-26T18:05:19.217Z,4.45
2023-04-26T18:07:47.119Z,4.13
2023-04-26T18:10:14.849Z,4.18
2023-04-26T18:12:42.217Z,3.72
2023-04-26T18:15:09.761Z,3.65
2023-04-26T18:17:37.242Z,2.97
2023-04-26T18:20:05.167Z,3.95
2023-04-26T18:22:32.667Z,4.45
2023-04-26T18:25:00.121Z,5.38
2023-04-26T18:27:27.709Z,4.90
2023-04-26T18:29:55.108Z,3.58
2023-04-26T18:32:22.694Z,7.90
2023-04-26T18:34:50.105Z,4.53
2023-04-26T18:37:18.169Z,4.45
2023-04-26T18:39:45.556Z,3.22
2023-04-26T18:42:12.935Z,2.67
2023-04-26T18:44:40.390Z,4.47
2023-04-26T18:47:07.858Z,5.55
2023-04-26T18:49:35.326Z,2.72
2023-04-26T18:52:02.720Z,2.33
2023-04-26T18:54:32.170Z,3.35
2023-04-26T18:57:01.335Z,4.53
2023-04-26T18:59:30.663Z,2.17
2023-04-26T19:01:58.889Z,2.17
2023-04-26T19:04:27.203Z,2.30
2023-04-26T19:06:54.755Z,2.47
2023-04-26T19:09:22.184Z,2.33
2023-04-26T19:11:50.339Z,2.78
2023-04-26T19:14:17.771Z,3.00
2023-04-26T19:16:45.537Z,2.70
2023-04-26T19:19:13.826Z,2.33
2023-04-26T19:21:41.380Z,2.38
2023-04-26T19:24:09.761Z,2.80
2023-04-26T19:26:38.061Z,2.22
2023-04-26T19:29:06.821Z,2.20
2023-04-26T19:31:34.565Z,2.30
2023-04-26T19:34:02.205Z,2.10
2023-04-26T19:36:29.595Z,2.08
2023-04-26T19:38:56.982Z,2.50
2023-04-26T19:41:24.364Z,2.30
2023-04-26T19:43:51.822Z,2.70
2023-04-26T19:46:19.247Z,3.30
2023-04-26T19:48:46.897Z,3.80
2023-04-26T19:51:20.454Z,3.47
2023-04-26T19:53:47.850Z,3.35
2023-04-26T19:56:15.338Z,3.63
2023-04-26T19:58:43.447Z,3.38
2023-04-26T20:01:10.994Z,3.38
2023-04-26T20:03:39.290Z,4.00
2023-04-26T20:06:07.677Z,4.00
2023-04-26T20:08:35.095Z,3.65
2023-04-26T20:11:03.768Z,3.65
2023-04-26T20:13:32.099Z,3.88
2023-04-26T20:15:59.544Z,4.03
2023-04-26T20:18:27.030Z,3.85
2023-04-26T20:20:54.444Z,3.55
2023-04-26T20:23:21.911Z,3.88
2023-04-26T20:25:50.724Z,3.97
2023-04-26T20:28:18.162Z,3.92
2023-04-26T20:30:45.696Z,4.15
2023-04-26T20:33:13.144Z,4.10
2023-04-26T20:35:41.275Z,3.60
2023-04-26T20:38:08.997Z,3.85
2023-04-26T20:40:36.408Z,3.83
2023-04-26T20:43:04.131Z,3.50
2023-04-26T20:45:31.905Z,3.60
2023-04-26T20:47:59.271Z,3.40
2023-04-26T20:50:26.719Z,3.70
2023-04-26T20:52:57.331Z,3.83
2023-04-26T20:55:24.816Z,3.72
2023-04-26T20:57:52.217Z,4.22
2023-04-26T21:00:20.072Z,4.07
2023-04-26T21:02:47.584Z,4.10
2023-04-26T21:05:15.194Z,4.40
2023-04-26T21:07:42.536Z,4.03
2023-04-26T21:10:10.296Z,3.92
2023-04-26T21:12:38.142Z,4.28
2023-04-26T21:15:06.345Z,4.43
2023-04-26T21:17:35.312Z,4.95
2023-04-26T21:20:02.993Z,5.07
2023-04-26T21:22:30.437Z,4.75
2023-04-26T21:24:57.827Z,4.63
2023-04-26T21:27:30.522Z,4.10
2023-04-26T21:29:57.912Z,4.55
2023-04-26T21:32:25.430Z,5.07
2023-04-26T21:34:53.285Z,5.03
2023-04-26T21:37:20.821Z,5.07
2023-04-26T21:39:48.166Z,4.80
2023-04-26T21:42:15.710Z,4.47
2023-04-26T21:44:43.249Z,4.97
2023-04-26T21:47:10.718Z,3.95
2023-04-26T21:49:39.592Z,4.20
2023-04-26T21:52:06.969Z,5.03
2023-04-26T21:54:35.731Z,4.72
2023-04-26T21:57:07.051Z,4.38
2023-04-26T21:59:35.246Z,3.42
2023-04-26T22:02:03.390Z,4.93
2023-04-26T22:04:31.013Z,4.90
2023-04-26T22:06:58.394Z,4.28
2023-04-26T22:09:26.804Z,4.30
2023-04-26T22:11:54.180Z,4.30
2023-04-26T22:14:21.727Z,4.80
2023-04-26T22:16:49.146Z,4.60
2023-04-26T22:19:16.507Z,4.60
2023-04-26T22:21:43.892Z,4.55
2023-04-26T22:24:11.257Z,4.85
2023-04-26T22:26:38.759Z,4.50
2023-04-26T22:29:07.096Z,4.68
2023-04-26T22:31:34.895Z,4.50
2023-04-26T22:34:02.332Z,4.95
2023-04-26T22:36:29.856Z,4.60
2023-04-26T22:38:59.031Z,4.53
2023-04-26T22:41:26.415Z,4.15
2023-04-26T22:43:54.043Z,4.43
2023-04-26T22:46:21.688Z,4.25
2023-04-26T22:48:49.227Z,4.22
2023-04-26T22:51:16.654Z,4.50
2023-04-26T22:53:43.995Z,4.82
2023-04-26T22:56:11.452Z,4.68
2023-04-26T22:58:38.810Z,4.55
2023-04-26T23:01:06.323Z,4.35
2023-04-26T23:03:36.766Z,5.00
2023-04-26T23:06:05.347Z,4.82
2023-04-26T23:08:32.732Z,4.25
2023-04-26T23:11:01.548Z,5.57
2023-04-26T23:13:30.319Z,4.80
2023-04-26T23:15:57.748Z,5.00
2023-04-26T23:18:26.531Z,4.57
2023-04-26T23:20:53.906Z,4.35
2023-04-26T23:23:21.272Z,5.50
2023-04-26T23:25:48.640Z,4.28
2023-04-26T23:28:16.183Z,4.18
2023-04-26T23:30:43.609Z,3.70
2023-04-26T23:33:11.109Z,3.97
2023-04-26T23:35:42.304Z,3.95
2023-04-26T23:38:09.713Z,4.03
2023-04-26T23:40:37.270Z,3.65
2023-04-26T23:43:06.213Z,4.47
2023-04-26T23:45:33.671Z,3.38
2023-04-26T23:48:01.869Z,3.65
2023-04-26T23:50:29.308Z,4.07
2023-04-26T23:52:56.975Z,3.70
2023-04-26T23:55:24.461Z,3.28
2023-04-26T23:57:51.821Z,3.83
